Ana Sayfa
METAR-TAF:

METAR-TAF

Havaalanları :

Angoulême, Fransa

Enlem: 45-43-46N, Boylam: 00-13-08E, yükseklik: 132 m

Güncel hava durumu gözlemi

Rapor saat 16:30 UTC de 32 dakika önce yapıldı.
Rüzgar kuzeydan 10 kt, kuzey/kuzeybatı ve kuzey/kuzeydoğu arasında değişken
Sıcaklık 14°C
Nem 31%
Basınç 1015 hPa
Görüş mesafesi 10 km veya daha fazla
1500 m altında bulut yok ve kümülonimbus yok

METAR: LFBU 021630Z AUTO 36010KT 330V030 CAVOK 14/M03 Q1015

Saat: 19:02 (17:02 UTC)


TAF: eksik

4.000'den fazla havaalanı için hava durumu gözlemleri ve tahminleri (METAR ve TAF raporları).

Kullanılabilir istasyonlar harita üzerinde sarı ve kırmızı noktalarla gösterilir.

İstasyonun adını görmek için fareyi noktanın üzerinde gezdirin.

Sonrasında hava gözlem ve tahminlerini görmek için tıklayın.

Haritayı değiştirmek için: yaklaştırmak için siyah artı işaretli yeşil düğmeye ve uzaklaştırmak için de eksi işaretli düğmeye hızla tıklayın; bitişik haritalar için yeşil okları kullanın.


METAR-TAF: